Terri L. Brusco — WDC3034 — position and weather

sailwx.info

Track history (hours):
 
Tides and Currents Weather Stations Pressure Air Temp Water Temp Dewpoint Dewpoint Depression Visibility Wind Speed Wind Dir Waves Ship Positions

Terri L. Brusco

Owner: Brusco Tug & Barge, Inc., Longview, WA. More information available from US FCC via Universal Licensing System and Coast Guard Vessel Documentation Center.

Last reported at 2016-Aug-20 16:33 UTC. Time now 2016-Aug-29 03:43 UTC.
Position N 38°04' W 121°50'.
Warning: this ship's position is 8 days out of date.

Length 21 m; draft 4 m.

Type: Tug. MMSI: 367001830.

Date/timePositionNaut miles runAvg speedWind from/ knotsBaromVisibWave heightAir tempDewpointWater temp
2016-Aug-20 16:33N 38°04' W 121°50'9 8.3
2016-Aug-20 15:28N 38°04' W 122°02'7 7.6
2016-Aug-20 14:33N 38°03' W 122°11'8 8.3
2016-Aug-20 13:33N 38°02' W 122°21'5 5.1
2016-Aug-20 12:32N 37°59' W 122°27'0 0.0
2016-Aug-20 11:33N 37°59' W 122°27'0 0.0
2016-Aug-20 10:34N 37°59' W 122°27'0 0.0
2016-Aug-20 09:32N 37°59' W 122°27'0 0.0
2016-Aug-20 04:15N 37°59' W 122°27'4 6.5
2016-Aug-20 03:33N 37°55' W 122°25'8 7.8
2016-Aug-20 02:34N 37°49' W 122°19'9 9.2
2016-Aug-20 01:33N 37°40' W 122°22'5 4.6
2016-Aug-20 00:34N 37°45' W 122°22'4 3.9
2016-Aug-19 23:33N 37°49' W 122°24'8 7.6
2016-Aug-19 22:33N 37°41' W 122°22'3 2.6
2016-Aug-19 21:33N 37°44' W 122°21'6 5.9
2016-Aug-19 20:33N 37°49' W 122°24'5 5.4
2016-Aug-19 19:33N 37°44' W 122°21'6 6.1
2016-Aug-19 18:33N 37°49' W 122°25'4 4.1
2016-Aug-19 17:33N 37°46' W 122°22'5 4.7
2016-Aug-19 16:33N 37°41' W 122°21'6 6.0
2016-Aug-19 15:34N 37°47' W 122°23'0 0.4
2016-Aug-19 14:33N 37°47' W 122°23'6 6.2
2016-Aug-19 13:33N 37°41' W 122°22'1 0.8
2016-Aug-19 12:33N 37°40' W 122°23'0 0.0
2016-Aug-19 11:33N 37°40' W 122°23'0 0.0
2016-Aug-19 10:33N 37°40' W 122°23'0 0.0
2016-Aug-19 09:33N 37°40' W 122°23'0 0.0
2016-Aug-19 08:33N 37°40' W 122°23'0 0.0
2016-Aug-19 07:33N 37°40' W 122°23'0 0.0
2016-Aug-19 06:33N 37°40' W 122°23'0 0.0
2016-Aug-19 05:33N 37°40' W 122°23'0 0.0
2016-Aug-19 04:33N 37°40' W 122°23'0 0.0
2016-Aug-19 03:33N 37°40' W 122°23'0 0.0
2016-Aug-19 02:34N 37°40' W 122°23'1 0.7
2016-Aug-19 01:33N 37°41' W 122°22'7 7.0
2016-Aug-19 00:33N 37°48' W 122°23'2 2.2
2016-Aug-18 23:33N 37°46' W 122°22'5 4.7
2016-Aug-18 22:34N 37°49' W 122°25'7 6.8
2016-Aug-18 21:33N 37°43' W 122°21'2 1.8
2016-Aug-18 20:34N 37°45' W 122°21'5 4.7
2016-Aug-18 19:34N 37°41' W 122°22'0 0.0
2016-Aug-18 18:33N 37°41' W 122°22'0 0.0
2016-Aug-18 17:33N 37°41' W 122°22'2 2.1
2016-Aug-18 16:33N 37°43' W 122°21'7 6.7
2016-Aug-18 15:33N 37°49' W 122°24'6 6.2
2016-Aug-18 14:34N 37°43' W 122°21'3 2.7
2016-Aug-18 13:34N 37°41' W 122°22'1 0.7
2016-Aug-18 12:33N 37°40' W 122°23'0 0.0
2016-Aug-18 11:33N 37°40' W 122°23'0 0.0
2016-Aug-18 10:33N 37°40' W 122°23'0 0.0
2016-Aug-18 09:23N 37°40' W 122°23'0 0.0
2016-Aug-18 08:33N 37°40' W 122°23'0 0.0
2016-Aug-18 07:34N 37°40' W 122°23'0 0.0
2016-Aug-18 06:33N 37°40' W 122°23'0 0.0
2016-Aug-18 05:34N 37°40' W 122°23'0 0.0
2016-Aug-18 04:33N 37°40' W 122°23'0 0.0
2016-Aug-18 03:33N 37°40' W 122°23'0 0.0
2016-Aug-18 02:33N 37°40' W 122°23'0 0.3
2016-Aug-18 01:33N 37°40' W 122°22'7 7.4
2016-Aug-18 00:33N 37°48' W 122°23'2 2.2
2016-Aug-17 23:33N 37°46' W 122°22'3 2.5
2016-Aug-17 22:33N 37°43' W 122°21'7 6.9
2016-Aug-17 21:33N 37°49' W 122°25'7 7.1
2016-Aug-17 20:34N 37°43' W 122°21'5 5.4
2016-Aug-17 19:33N 37°48' W 122°23'2 1.7
2016-Aug-17 18:33N 37°47' W 122°22'5 4.7
2016-Aug-17 17:33N 37°42' W 122°21'2 1.5
2016-Aug-17 16:33N 37°41' W 122°22'9 9.4
2016-Aug-17 15:34N 37°49' W 122°25'5 4.8
2016-Aug-17 14:33N 37°46' W 122°22'5 5.0
2016-Aug-17 13:33N 37°41' W 122°22'0 0.1
2016-Aug-17 12:33N 37°41' W 122°22'0 0.0
2016-Aug-17 11:33N 37°41' W 122°22'0 0.0
2016-Aug-17 10:33N 37°41' W 122°22'0 0.0
2016-Aug-17 09:33N 37°41' W 122°22'0 0.0
2016-Aug-17 08:33N 37°41' W 122°22'0 0.0
2016-Aug-17 07:33N 37°41' W 122°22'0 0.0
2016-Aug-17 06:16N 37°41' W 122°22'0 0.0
2016-Aug-17 05:28N 37°41' W 122°22'0 0.0
2016-Aug-17 04:33N 37°41' W 122°22'0 0.0
2016-Aug-17 03:33N 37°41' W 122°22'0 0.0
2016-Aug-17 02:33N 37°41' W 122°22'0 0.0
2016-Aug-17 01:32N 37°41' W 122°22'0 0.0
2016-Aug-17 00:33N 37°41' W 122°22'7 7.1
2016-Aug-16 23:33N 37°48' W 122°23'2 2.0
2016-Aug-16 22:33N 37°46' W 122°22'3 3.4
2016-Aug-16 21:33N 37°42' W 122°21'8 7.6
2016-Aug-16 20:33N 37°49' W 122°25'6 6.0
2016-Aug-16 19:33N 37°44' W 122°21'4 3.7
2016-Aug-16 18:33N 37°41' W 122°22'0 0.0
2016-Aug-16 17:33N 37°41' W 122°22'0 0.0
2016-Aug-16 16:32N 37°41' W 122°22'0 0.0
2016-Aug-16 15:32N 37°41' W 122°22'2 2.4
2016-Aug-16 14:33N 37°43' W 122°21'7 6.7
2016-Aug-16 13:33N 37°50' W 122°21'0 0.1
2016-Aug-16 12:33N 37°50' W 122°21'0 0.0
2016-Aug-16 11:33N 37°50' W 122°21'3 2.6
2016-Aug-16 10:33N 37°47' W 122°21'2 2.4
2016-Aug-16 09:34N 37°49' W 122°21'1 0.5
2016-Aug-16 08:34N 37°50' W 122°22'4 3.6
2016-Aug-16 07:34N 37°46' W 122°21'1 0.2
2016-Aug-16 04:34N 37°46' W 122°21'1 0.9
2016-Aug-16 03:33N 37°46' W 122°20'0 0.0
2016-Aug-16 02:33N 37°46' W 122°20'0 0.0
2016-Aug-16 01:33N 37°46' W 122°20'0 0.0
2016-Aug-16 00:33N 37°46' W 122°20'0 0.0
2016-Aug-15 23:33N 37°46' W 122°20'0 0.1
2016-Aug-15 22:33N 37°46' W 122°20'6 5.9
2016-Aug-15 21:33N 37°41' W 122°22'5 5.4
2016-Aug-15 20:33N 37°46' W 122°22'10 9.9
2016-Aug-15 19:32N 37°56' W 122°26'11 8.3
2016-Aug-15 18:12N 38°04' W 122°16'5 8.2
2016-Aug-15 17:33N 38°02' W 122°09'9 8.8
2016-Aug-15 16:32N 38°03' W 121°58'  
Track history (hours):
 
Tides and Currents Weather Stations Pressure Air Temp Water Temp Dewpoint Dewpoint Depression Visibility Wind Speed Wind Dir Waves Ship Positions

Terri L. Brusco

Owner: Brusco Tug & Barge, Inc., Longview, WA. More information available from US FCC via Universal Licensing System and Coast Guard Vessel Documentation Center.

Last reported at 2016-Aug-20 16:33 UTC. Time now 2016-Aug-29 03:43 UTC.
Position N 38°04' W 121°50'.
Warning: this ship's position is 8 days out of date.

Length 21 m; draft 4 m.

Type: Tug. MMSI: 367001830.

Date/timePositionNaut miles runAvg speedWind from/ knotsBaromVisibWave heightAir tempDewpointWater temp
2016-Aug-20 16:33N 38°04' W 121°50'9 8.3
2016-Aug-20 15:28N 38°04' W 122°02'7 7.6
2016-Aug-20 14:33N 38°03' W 122°11'8 8.3
2016-Aug-20 13:33N 38°02' W 122°21'5 5.1
2016-Aug-20 12:32N 37°59' W 122°27'0 0.0
2016-Aug-20 11:33N 37°59' W 122°27'0 0.0
2016-Aug-20 10:34N 37°59' W 122°27'0 0.0
2016-Aug-20 09:32N 37°59' W 122°27'0 0.0
2016-Aug-20 04:15N 37°59' W 122°27'4 6.5
2016-Aug-20 03:33N 37°55' W 122°25'8 7.8
2016-Aug-20 02:34N 37°49' W 122°19'9 9.2
2016-Aug-20 01:33N 37°40' W 122°22'5 4.6
2016-Aug-20 00:34N 37°45' W 122°22'4 3.9
2016-Aug-19 23:33N 37°49' W 122°24'8 7.6
2016-Aug-19 22:33N 37°41' W 122°22'3 2.6
2016-Aug-19 21:33N 37°44' W 122°21'6 5.9
2016-Aug-19 20:33N 37°49' W 122°24'5 5.4
2016-Aug-19 19:33N 37°44' W 122°21'6 6.1
2016-Aug-19 18:33N 37°49' W 122°25'4 4.1
2016-Aug-19 17:33N 37°46' W 122°22'5 4.7
2016-Aug-19 16:33N 37°41' W 122°21'6 6.0
2016-Aug-19 15:34N 37°47' W 122°23'0 0.4
2016-Aug-19 14:33N 37°47' W 122°23'6 6.2
2016-Aug-19 13:33N 37°41' W 122°22'1 0.8
2016-Aug-19 12:33N 37°40' W 122°23'0 0.0
2016-Aug-19 11:33N 37°40' W 122°23'0 0.0
2016-Aug-19 10:33N 37°40' W 122°23'0 0.0
2016-Aug-19 09:33N 37°40' W 122°23'0 0.0
2016-Aug-19 08:33N 37°40' W 122°23'0 0.0
2016-Aug-19 07:33N 37°40' W 122°23'0 0.0
2016-Aug-19 06:33N 37°40' W 122°23'0 0.0
2016-Aug-19 05:33N 37°40' W 122°23'0 0.0
2016-Aug-19 04:33N 37°40' W 122°23'0 0.0
2016-Aug-19 03:33N 37°40' W 122°23'0 0.0
2016-Aug-19 02:34N 37°40' W 122°23'1 0.7
2016-Aug-19 01:33N 37°41' W 122°22'7 7.0
2016-Aug-19 00:33N 37°48' W 122°23'2 2.2
2016-Aug-18 23:33N 37°46' W 122°22'5 4.7
2016-Aug-18 22:34N 37°49' W 122°25'7 6.8
2016-Aug-18 21:33N 37°43' W 122°21'2 1.8
2016-Aug-18 20:34N 37°45' W 122°21'5 4.7
2016-Aug-18 19:34N 37°41' W 122°22'0 0.0
2016-Aug-18 18:33N 37°41' W 122°22'0 0.0
2016-Aug-18 17:33N 37°41' W 122°22'2 2.1
2016-Aug-18 16:33N 37°43' W 122°21'7 6.7
2016-Aug-18 15:33N 37°49' W 122°24'6 6.2
2016-Aug-18 14:34N 37°43' W 122°21'3 2.7
2016-Aug-18 13:34N 37°41' W 122°22'1 0.7
2016-Aug-18 12:33N 37°40' W 122°23'0 0.0
2016-Aug-18 11:33N 37°40' W 122°23'0 0.0
2016-Aug-18 10:33N 37°40' W 122°23'0 0.0
2016-Aug-18 09:23N 37°40' W 122°23'0 0.0
2016-Aug-18 08:33N 37°40' W 122°23'0 0.0
2016-Aug-18 07:34N 37°40' W 122°23'0 0.0
2016-Aug-18 06:33N 37°40' W 122°23'0 0.0
2016-Aug-18 05:34N 37°40' W 122°23'0 0.0
2016-Aug-18 04:33N 37°40' W 122°23'0 0.0
2016-Aug-18 03:33N 37°40' W 122°23'0 0.0
2016-Aug-18 02:33N 37°40' W 122°23'0 0.3
2016-Aug-18 01:33N 37°40' W 122°22'7 7.4
2016-Aug-18 00:33N 37°48' W 122°23'2 2.2
2016-Aug-17 23:33N 37°46' W 122°22'3 2.5
2016-Aug-17 22:33N 37°43' W 122°21'7 6.9
2016-Aug-17 21:33N 37°49' W 122°25'7 7.1
2016-Aug-17 20:34N 37°43' W 122°21'5 5.4
2016-Aug-17 19:33N 37°48' W 122°23'2 1.7
2016-Aug-17 18:33N 37°47' W 122°22'5 4.7
2016-Aug-17 17:33N 37°42' W 122°21'2 1.5
2016-Aug-17 16:33N 37°41' W 122°22'9 9.4
2016-Aug-17 15:34N 37°49' W 122°25'5 4.8
2016-Aug-17 14:33N 37°46' W 122°22'5 5.0
2016-Aug-17 13:33N 37°41' W 122°22'0 0.1
2016-Aug-17 12:33N 37°41' W 122°22'0 0.0
2016-Aug-17 11:33N 37°41' W 122°22'0 0.0
2016-Aug-17 10:33N 37°41' W 122°22'0 0.0
2016-Aug-17 09:33N 37°41' W 122°22'0 0.0
2016-Aug-17 08:33N 37°41' W 122°22'0 0.0
2016-Aug-17 07:33N 37°41' W 122°22'0 0.0
2016-Aug-17 06:16N 37°41' W 122°22'0 0.0
2016-Aug-17 05:28N 37°41' W 122°22'0 0.0
2016-Aug-17 04:33N 37°41' W 122°22'0 0.0
2016-Aug-17 03:33N 37°41' W 122°22'0 0.0
2016-Aug-17 02:33N 37°41' W 122°22'0 0.0
2016-Aug-17 01:32N 37°41' W 122°22'0 0.0
2016-Aug-17 00:33N 37°41' W 122°22'7 7.1
2016-Aug-16 23:33N 37°48' W 122°23'2 2.0
2016-Aug-16 22:33N 37°46' W 122°22'3 3.4
2016-Aug-16 21:33N 37°42' W 122°21'8 7.6
2016-Aug-16 20:33N 37°49' W 122°25'6 6.0
2016-Aug-16 19:33N 37°44' W 122°21'4 3.7
2016-Aug-16 18:33N 37°41' W 122°22'0 0.0
2016-Aug-16 17:33N 37°41' W 122°22'0 0.0
2016-Aug-16 16:32N 37°41' W 122°22'0 0.0
2016-Aug-16 15:32N 37°41' W 122°22'2 2.4
2016-Aug-16 14:33N 37°43' W 122°21'7 6.7
2016-Aug-16 13:33N 37°50' W 122°21'0 0.1
2016-Aug-16 12:33N 37°50' W 122°21'0 0.0
2016-Aug-16 11:33N 37°50' W 122°21'3 2.6
2016-Aug-16 10:33N 37°47' W 122°21'2 2.4
2016-Aug-16 09:34N 37°49' W 122°21'1 0.5
2016-Aug-16 08:34N 37°50' W 122°22'4 3.6
2016-Aug-16 07:34N 37°46' W 122°21'1 0.2
2016-Aug-16 04:34N 37°46' W 122°21'1 0.9
2016-Aug-16 03:33N 37°46' W 122°20'0 0.0
2016-Aug-16 02:33N 37°46' W 122°20'0 0.0
2016-Aug-16 01:33N 37°46' W 122°20'0 0.0
2016-Aug-16 00:33N 37°46' W 122°20'0 0.0
2016-Aug-15 23:33N 37°46' W 122°20'0 0.1
2016-Aug-15 22:33N 37°46' W 122°20'6 5.9
2016-Aug-15 21:33N 37°41' W 122°22'5 5.4
2016-Aug-15 20:33N 37°46' W 122°22'10 9.9
2016-Aug-15 19:32N 37°56' W 122°26'11 8.3
2016-Aug-15 18:12N 38°04' W 122°16'5 8.2
2016-Aug-15 17:33N 38°02' W 122°09'9 8.8
2016-Aug-15 16:32N 38°03' W 121°58'  

Dump ship's entire track history